sensor_id;sensor_type;location;lat;lon;timestamp;temperature;humidity
14057;DHT22;7103;54.300;10.180;2023-05-10T00:00:26;13.90;99.90
14057;DHT22;7103;54.300;10.180;2023-05-10T00:02:53;13.90;99.90
14057;DHT22;7103;54.300;10.180;2023-05-10T00:05:20;13.90;99.90
14057;DHT22;7103;54.300;10.180;2023-05-10T00:07:47;13.90;99.90
14057;DHT22;7103;54.300;10.180;2023-05-10T00:10:14;13.90;99.90
14057;DHT22;7103;54.300;10.180;2023-05-10T00:12:41;13.80;99.90
14057;DHT22;7103;54.300;10.180;2023-05-10T00:15:09;13.70;99.90
14057;DHT22;7103;54.300;10.180;2023-05-10T00:17:36;13.80;99.90
14057;DHT22;7103;54.300;10.180;2023-05-10T00:20:03;13.80;99.90
14057;DHT22;7103;54.300;10.180;2023-05-10T00:22:32;13.70;99.90
14057;DHT22;7103;54.300;10.180;2023-05-10T00:24:59;13.60;99.90
14057;DHT22;7103;54.300;10.180;2023-05-10T00:27:26;13.60;99.90
14057;DHT22;7103;54.300;10.180;2023-05-10T00:29:53;13.60;99.90
14057;DHT22;7103;54.300;10.180;2023-05-10T00:32:20;13.60;99.90
14057;DHT22;7103;54.300;10.180;2023-05-10T00:34:47;13.50;99.90
14057;DHT22;7103;54.300;10.180;2023-05-10T00:37:14;13.40;99.90
14057;DHT22;7103;54.300;10.180;2023-05-10T00:39:41;13.40;99.90
14057;DHT22;7103;54.300;10.180;2023-05-10T00:42:08;13.30;99.90
14057;DHT22;7103;54.300;10.180;2023-05-10T00:44:35;13.30;99.90
14057;DHT22;7103;54.300;10.180;2023-05-10T00:47:02;13.40;99.90
14057;DHT22;7103;54.300;10.180;2023-05-10T00:49:29;13.30;99.90
14057;DHT22;7103;54.300;10.180;2023-05-10T00:51:56;13.30;99.90
14057;DHT22;7103;54.300;10.180;2023-05-10T00:54:23;13.30;99.90
14057;DHT22;7103;54.300;10.180;2023-05-10T00:56:51;13.30;99.90
14057;DHT22;7103;54.300;10.180;2023-05-10T00:59:18;13.40;99.90
14057;DHT22;7103;54.300;10.180;2023-05-10T01:01:46;13.30;99.90
14057;DHT22;7103;54.300;10.180;2023-05-10T01:04:14;13.30;99.90
14057;DHT22;7103;54.300;10.180;2023-05-10T01:06:41;13.30;99.90
14057;DHT22;7103;54.300;10.180;2023-05-10T01:09:09;13.30;99.90
14057;DHT22;7103;54.300;10.180;2023-05-10T01:11:38;13.20;99.90
14057;DHT22;7103;54.300;10.180;2023-05-10T01:14:06;13.20;99.90
14057;DHT22;7103;54.300;10.180;2023-05-10T01:16:40;13.20;99.90
14057;DHT22;7103;54.300;10.180;2023-05-10T01:19:28;13.20;99.90
14057;DHT22;7103;54.300;10.180;2023-05-10T01:22:05;13.20;99.90
14057;DHT22;7103;54.300;10.180;2023-05-10T01:33:21;13.00;99.90
14057;DHT22;7103;54.300;10.180;2023-05-10T01:36:06;13.10;99.90
14057;DHT22;7103;54.300;10.180;2023-05-10T01:41:14;13.00;99.90
14057;DHT22;7103;54.300;10.180;2023-05-10T01:44:28;13.00;99.90
14057;DHT22;7103;54.300;10.180;2023-05-10T01:47:04;13.00;99.90
14057;DHT22;7103;54.300;10.180;2023-05-10T01:49:39;13.00;99.90
14057;DHT22;7103;54.300;10.180;2023-05-10T01:52:10;12.90;99.90
14057;DHT22;7103;54.300;10.180;2023-05-10T01:54:50;13.00;99.90
14057;DHT22;7103;54.300;10.180;2023-05-10T01:57:19;13.00;99.90
14057;DHT22;7103;54.300;10.180;2023-05-10T01:59:50;13.00;99.90
14057;DHT22;7103;54.300;10.180;2023-05-10T02:02:20;12.90;99.90
14057;DHT22;7103;54.300;10.180;2023-05-10T02:04:49;12.80;99.90
14057;DHT22;7103;54.300;10.180;2023-05-10T02:07:17;12.70;99.90
14057;DHT22;7103;54.300;10.180;2023-05-10T02:09:45;12.70;99.90
14057;DHT22;7103;54.300;10.180;2023-05-10T02:12:16;12.70;99.90
14057;DHT22;7103;54.300;10.180;2023-05-10T02:14:44;12.70;99.90
14057;DHT22;7103;54.300;10.180;2023-05-10T02:17:12;12.70;99.90
14057;DHT22;7103;54.300;10.180;2023-05-10T02:19:41;12.80;99.90
14057;DHT22;7103;54.300;10.180;2023-05-10T02:22:09;12.70;99.90
14057;DHT22;7103;54.300;10.180;2023-05-10T02:24:37;12.70;99.90
14057;DHT22;7103;54.300;10.180;2023-05-10T02:27:06;12.70;99.90
14057;DHT22;7103;54.300;10.180;2023-05-10T02:29:34;12.70;99.90
14057;DHT22;7103;54.300;10.180;2023-05-10T02:32:02;12.70;99.90
14057;DHT22;7103;54.300;10.180;2023-05-10T02:34:30;12.70;99.90
14057;DHT22;7103;54.300;10.180;2023-05-10T02:36:58;12.70;99.90
14057;DHT22;7103;54.300;10.180;2023-05-10T02:39:26;12.80;99.90
14057;DHT22;7103;54.300;10.180;2023-05-10T02:41:57;12.70;99.90
14057;DHT22;7103;54.300;10.180;2023-05-10T02:44:25;12.70;99.90
14057;DHT22;7103;54.300;10.180;2023-05-10T02:46:53;12.70;99.90
14057;DHT22;7103;54.300;10.180;2023-05-10T02:49:22;12.60;99.90
14057;DHT22;7103;54.300;10.180;2023-05-10T02:51:53;12.70;99.90
14057;DHT22;7103;54.300;10.180;2023-05-10T02:54:29;12.60;99.90
14057;DHT22;7103;54.300;10.180;2023-05-10T02:57:03;12.60;99.90
14057;DHT22;7103;54.300;10.180;2023-05-10T02:59:31;12.60;99.90
14057;DHT22;7103;54.300;10.180;2023-05-10T03:01:59;12.60;99.90
14057;DHT22;7103;54.300;10.180;2023-05-10T03:04:27;12.60;99.90
14057;DHT22;7103;54.300;10.180;2023-05-10T03:06:54;12.50;99.90
14057;DHT22;7103;54.300;10.180;2023-05-10T03:09:21;12.50;99.90
14057;DHT22;7103;54.300;10.180;2023-05-10T03:17:25;12.50;99.90
14057;DHT22;7103;54.300;10.180;2023-05-10T03:19:56;12.50;99.90
14057;DHT22;7103;54.300;10.180;2023-05-10T03:23:04;12.40;99.90
14057;DHT22;7103;54.300;10.180;2023-05-10T03:25:32;12.40;99.90
14057;DHT22;7103;54.300;10.180;2023-05-10T03:28:01;12.30;99.90
14057;DHT22;7103;54.300;10.180;2023-05-10T03:30:29;12.40;99.90
14057;DHT22;7103;54.300;10.180;2023-05-10T03:32:57;12.40;99.90
14057;DHT22;7103;54.300;10.180;2023-05-10T03:35:24;12.40;99.90
14057;DHT22;7103;54.300;10.180;2023-05-10T03:37:51;12.30;99.90
14057;DHT22;7103;54.300;10.180;2023-05-10T03:40:18;12.30;99.90
14057;DHT22;7103;54.300;10.180;2023-05-10T03:42:45;12.30;99.90
14057;DHT22;7103;54.300;10.180;2023-05-10T03:45:12;12.20;99.90
14057;DHT22;7103;54.300;10.180;2023-05-10T03:47:39;12.30;99.90
14057;DHT22;7103;54.300;10.180;2023-05-10T03:50:06;12.30;99.90
14057;DHT22;7103;54.300;10.180;2023-05-10T03:52:33;12.30;99.90
14057;DHT22;7103;54.300;10.180;2023-05-10T03:55:00;12.30;99.90
14057;DHT22;7103;54.300;10.180;2023-05-10T03:57:29;12.30;99.90
14057;DHT22;7103;54.300;10.180;2023-05-10T03:59:56;12.20;99.90
14057;DHT22;7103;54.300;10.180;2023-05-10T04:02:23;12.30;99.90
14057;DHT22;7103;54.300;10.180;2023-05-10T04:04:50;12.30;99.90
14057;DHT22;7103;54.300;10.180;2023-05-10T04:07:17;12.30;99.90
14057;DHT22;7103;54.300;10.180;2023-05-10T04:09:44;12.30;99.90
14057;DHT22;7103;54.300;10.180;2023-05-10T04:12:11;12.30;99.90
14057;DHT22;7103;54.300;10.180;2023-05-10T04:14:38;12.30;99.90
14057;DHT22;7103;54.300;10.180;2023-05-10T04:17:05;12.30;99.90
14057;DHT22;7103;54.300;10.180;2023-05-10T04:19:33;12.30;99.90
14057;DHT22;7103;54.300;10.180;2023-05-10T04:22:00;12.40;99.90
14057;DHT22;7103;54.300;10.180;2023-05-10T04:24:28;12.40;99.90
14057;DHT22;7103;54.300;10.180;2023-05-10T04:26:55;12.40;99.90
14057;DHT22;7103;54.300;10.180;2023-05-10T04:29:23;12.50;99.90
14057;DHT22;7103;54.300;10.180;2023-05-10T04:31:50;12.40;99.90
14057;DHT22;7103;54.300;10.180;2023-05-10T04:34:17;12.40;99.90
14057;DHT22;7103;54.300;10.180;2023-05-10T04:36:45;12.50;99.90
14057;DHT22;7103;54.300;10.180;2023-05-10T04:39:12;12.60;99.90
14057;DHT22;7103;54.300;10.180;2023-05-10T04:41:40;12.50;99.90
14057;DHT22;7103;54.300;10.180;2023-05-10T04:44:07;12.60;99.90
14057;DHT22;7103;54.300;10.180;2023-05-10T04:46:34;12.60;99.90
14057;DHT22;7103;54.300;10.180;2023-05-10T04:49:01;12.60;99.90
14057;DHT22;7103;54.300;10.180;2023-05-10T04:51:28;12.60;99.90
14057;DHT22;7103;54.300;10.180;2023-05-10T04:53:55;12.70;99.90
14057;DHT22;7103;54.300;10.180;2023-05-10T04:56:31;12.70;99.90
14057;DHT22;7103;54.300;10.180;2023-05-10T04:58:58;12.80;99.90
14057;DHT22;7103;54.300;10.180;2023-05-10T05:01:25;12.80;99.90
14057;DHT22;7103;54.300;10.180;2023-05-10T05:03:52;12.80;99.90
14057;DHT22;7103;54.300;10.180;2023-05-10T05:06:20;12.70;99.90
14057;DHT22;7103;54.300;10.180;2023-05-10T05:08:51;12.80;99.90
14057;DHT22;7103;54.300;10.180;2023-05-10T05:11:18;12.80;99.90
14057;DHT22;7103;54.300;10.180;2023-05-10T05:13:45;12.80;99.90
14057;DHT22;7103;54.300;10.180;2023-05-10T05:16:12;12.80;99.90
14057;DHT22;7103;54.300;10.180;2023-05-10T05:18:39;12.80;99.90
14057;DHT22;7103;54.300;10.180;2023-05-10T05:21:16;12.90;99.90
14057;DHT22;7103;54.300;10.180;2023-05-10T05:23:43;12.90;99.90
14057;DHT22;7103;54.300;10.180;2023-05-10T05:26:11;12.90;99.90
14057;DHT22;7103;54.300;10.180;2023-05-10T05:28:38;13.00;99.90
14057;DHT22;7103;54.300;10.180;2023-05-10T05:31:06;13.00;99.90
14057;DHT22;7103;54.300;10.180;2023-05-10T05:33:34;13.10;99.90
14057;DHT22;7103;54.300;10.180;2023-05-10T05:36:03;13.00;99.90
14057;DHT22;7103;54.300;10.180;2023-05-10T05:38:30;13.20;99.90
14057;DHT22;7103;54.300;10.180;2023-05-10T05:40:57;13.50;99.90
14057;DHT22;7103;54.300;10.180;2023-05-10T05:43:24;13.90;99.90
14057;DHT22;7103;54.300;10.180;2023-05-10T05:45:55;14.30;99.90
14057;DHT22;7103;54.300;10.180;2023-05-10T05:48:24;14.60;99.90
14057;DHT22;7103;54.300;10.180;2023-05-10T05:50:55;14.90;99.90
14057;DHT22;7103;54.300;10.180;2023-05-10T05:53:25;15.00;99.90
14057;DHT22;7103;54.300;10.180;2023-05-10T05:55:57;15.30;99.90
14057;DHT22;7103;54.300;10.180;2023-05-10T05:58:25;16.00;99.90
14057;DHT22;7103;54.300;10.180;2023-05-10T06:00:52;16.60;99.90
14057;DHT22;7103;54.300;10.180;2023-05-10T06:03:19;16.80;99.90
14057;DHT22;7103;54.300;10.180;2023-05-10T06:05:47;16.50;99.90
14057;DHT22;7103;54.300;10.180;2023-05-10T06:08:14;16.60;99.90
14057;DHT22;7103;54.300;10.180;2023-05-10T06:10:41;17.00;99.90
14057;DHT22;7103;54.300;10.180;2023-05-10T06:13:08;17.30;99.90
14057;DHT22;7103;54.300;10.180;2023-05-10T06:15:35;17.80;99.90
14057;DHT22;7103;54.300;10.180;2023-05-10T06:18:02;18.10;99.90
14057;DHT22;7103;54.300;10.180;2023-05-10T06:20:30;18.20;99.90
14057;DHT22;7103;54.300;10.180;2023-05-10T06:22:58;18.40;99.90
14057;DHT22;7103;54.300;10.180;2023-05-10T06:25:25;18.40;99.90
14057;DHT22;7103;54.300;10.180;2023-05-10T06:27:52;18.20;99.90
14057;DHT22;7103;54.300;10.180;2023-05-10T06:30:24;17.70;99.90
14057;DHT22;7103;54.300;10.180;2023-05-10T06:32:54;17.10;99.90
14057;DHT22;7103;54.300;10.180;2023-05-10T06:35:22;17.20;99.90
14057;DHT22;7103;54.300;10.180;2023-05-10T06:37:49;17.60;99.90
14057;DHT22;7103;54.300;10.180;2023-05-10T06:40:17;17.80;99.90
14057;DHT22;7103;54.300;10.180;2023-05-10T06:42:44;17.70;99.90
14057;DHT22;7103;54.300;10.180;2023-05-10T06:45:12;17.30;99.90
14057;DHT22;7103;54.300;10.180;2023-05-10T06:47:39;17.10;99.90
14057;DHT22;7103;54.300;10.180;2023-05-10T06:50:07;17.20;99.90
14057;DHT22;7103;54.300;10.180;2023-05-10T06:52:34;17.00;99.90
14057;DHT22;7103;54.300;10.180;2023-05-10T06:55:02;17.00;99.90
14057;DHT22;7103;54.300;10.180;2023-05-10T06:57:30;17.40;99.90
14057;DHT22;7103;54.300;10.180;2023-05-10T06:59:58;17.90;99.90
14057;DHT22;7103;54.300;10.180;2023-05-10T07:02:26;18.00;99.90
14057;DHT22;7103;54.300;10.180;2023-05-10T07:04:53;18.10;99.90
14057;DHT22;7103;54.300;10.180;2023-05-10T07:07:20;17.70;99.90
14057;DHT22;7103;54.300;10.180;2023-05-10T07:09:47;17.80;99.90
14057;DHT22;7103;54.300;10.180;2023-05-10T07:12:16;17.60;99.90
14057;DHT22;7103;54.300;10.180;2023-05-10T07:14:43;17.30;99.90
14057;DHT22;7103;54.300;10.180;2023-05-10T07:17:10;17.90;99.90
14057;DHT22;7103;54.300;10.180;2023-05-10T07:19:37;18.10;99.90
14057;DHT22;7103;54.300;10.180;2023-05-10T07:22:04;18.70;99.90
14057;DHT22;7103;54.300;10.180;2023-05-10T07:24:32;18.80;99.90
14057;DHT22;7103;54.300;10.180;2023-05-10T07:27:02;19.20;99.90
14057;DHT22;7103;54.300;10.180;2023-05-10T07:29:29;19.30;99.90
14057;DHT22;7103;54.300;10.180;2023-05-10T07:31:56;19.60;99.90
14057;DHT22;7103;54.300;10.180;2023-05-10T07:34:24;19.10;99.90
14057;DHT22;7103;54.300;10.180;2023-05-10T07:36:52;18.70;99.90
14057;DHT22;7103;54.300;10.180;2023-05-10T07:39:19;18.40;99.90
14057;DHT22;7103;54.300;10.180;2023-05-10T07:41:54;18.40;99.90
14057;DHT22;7103;54.300;10.180;2023-05-10T07:44:22;19.10;99.90
14057;DHT22;7103;54.300;10.180;2023-05-10T07:46:49;19.30;99.90
14057;DHT22;7103;54.300;10.180;2023-05-10T07:49:16;19.60;99.90
14057;DHT22;7103;54.300;10.180;2023-05-10T07:51:43;19.40;99.90
14057;DHT22;7103;54.300;10.180;2023-05-10T07:54:10;19.10;99.90
14057;DHT22;7103;54.300;10.180;2023-05-10T07:56:37;19.30;99.90
14057;DHT22;7103;54.300;10.180;2023-05-10T07:59:05;19.10;99.90
14057;DHT22;7103;54.300;10.180;2023-05-10T08:01:34;19.10;99.90
14057;DHT22;7103;54.300;10.180;2023-05-10T08:04:01;19.20;99.90
14057;DHT22;7103;54.300;10.180;2023-05-10T08:06:29;20.10;99.90
14057;DHT22;7103;54.300;10.180;2023-05-10T08:08:57;20.20;99.90
14057;DHT22;7103;54.300;10.180;2023-05-10T08:11:24;20.40;99.90
14057;DHT22;7103;54.300;10.180;2023-05-10T08:13:52;20.40;99.90
14057;DHT22;7103;54.300;10.180;2023-05-10T08:16:20;20.60;99.90
14057;DHT22;7103;54.300;10.180;2023-05-10T08:18:47;20.60;99.90
14057;DHT22;7103;54.300;10.180;2023-05-10T08:21:15;20.30;99.90
14057;DHT22;7103;54.300;10.180;2023-05-10T08:23:42;20.70;99.90
14057;DHT22;7103;54.300;10.180;2023-05-10T08:26:11;20.70;99.90
14057;DHT22;7103;54.300;10.180;2023-05-10T08:28:38;21.30;99.90
14057;DHT22;7103;54.300;10.180;2023-05-10T08:31:05;21.20;99.90
14057;DHT22;7103;54.300;10.180;2023-05-10T08:33:32;21.30;99.90
14057;DHT22;7103;54.300;10.180;2023-05-10T08:35:59;21.20;99.90
14057;DHT22;7103;54.300;10.180;2023-05-10T08:38:26;21.20;99.90
14057;DHT22;7103;54.300;10.180;2023-05-10T08:40:54;21.30;99.90
14057;DHT22;7103;54.300;10.180;2023-05-10T08:43:29;21.90;99.90
14057;DHT22;7103;54.300;10.180;2023-05-10T08:46:00;22.10;99.90
14057;DHT22;7103;54.300;10.180;2023-05-10T08:48:29;22.30;99.90
14057;DHT22;7103;54.300;10.180;2023-05-10T08:50:58;22.10;99.90
14057;DHT22;7103;54.300;10.180;2023-05-10T08:53:28;22.30;99.90
14057;DHT22;7103;54.300;10.180;2023-05-10T08:55:57;22.60;99.90
14057;DHT22;7103;54.300;10.180;2023-05-10T08:58:25;22.70;99.90
14057;DHT22;7103;54.300;10.180;2023-05-10T09:00:52;23.00;99.90
14057;DHT22;7103;54.300;10.180;2023-05-10T09:03:20;22.80;99.90
14057;DHT22;7103;54.300;10.180;2023-05-10T09:05:48;23.00;99.90
14057;DHT22;7103;54.300;10.180;2023-05-10T09:08:15;23.50;99.90
14057;DHT22;7103;54.300;10.180;2023-05-10T09:10:44;22.90;99.90
14057;DHT22;7103;54.300;10.180;2023-05-10T09:13:11;22.80;99.90
14057;DHT22;7103;54.300;10.180;2023-05-10T09:15:38;22.80;99.90
14057;DHT22;7103;54.300;10.180;2023-05-10T09:18:05;22.60;99.90
14057;DHT22;7103;54.300;10.180;2023-05-10T09:20:32;22.30;99.90
14057;DHT22;7103;54.300;10.180;2023-05-10T09:22:59;22.20;99.90
14057;DHT22;7103;54.300;10.180;2023-05-10T09:25:26;22.70;99.90
14057;DHT22;7103;54.300;10.180;2023-05-10T09:27:54;22.40;99.90
14057;DHT22;7103;54.300;10.180;2023-05-10T09:30:29;22.00;99.90
14057;DHT22;7103;54.300;10.180;2023-05-10T09:32:57;21.90;99.90
14057;DHT22;7103;54.300;10.180;2023-05-10T09:35:27;21.50;99.90
14057;DHT22;7103;54.300;10.180;2023-05-10T09:37:57;22.00;99.90
14057;DHT22;7103;54.300;10.180;2023-05-10T09:40:26;21.80;99.90
14057;DHT22;7103;54.300;10.180;2023-05-10T09:42:54;21.80;99.90
14057;DHT22;7103;54.300;10.180;2023-05-10T09:45:23;21.70;99.90
14057;DHT22;7103;54.300;10.180;2023-05-10T09:47:50;21.60;99.90
14057;DHT22;7103;54.300;10.180;2023-05-10T09:50:19;22.00;99.90
14057;DHT22;7103;54.300;10.180;2023-05-10T09:55:14;22.60;99.90
14057;DHT22;7103;54.300;10.180;2023-05-10T09:57:41;23.00;99.90
14057;DHT22;7103;54.300;10.180;2023-05-10T10:00:09;23.30;99.90
14057;DHT22;7103;54.300;10.180;2023-05-10T10:02:39;23.50;99.90
14057;DHT22;7103;54.300;10.180;2023-05-10T10:05:07;23.50;99.90
14057;DHT22;7103;54.300;10.180;2023-05-10T10:07:35;23.40;99.90
14057;DHT22;7103;54.300;10.180;2023-05-10T10:10:02;22.70;99.90
14057;DHT22;7103;54.300;10.180;2023-05-10T10:12:31;23.00;99.90
14057;DHT22;7103;54.300;10.180;2023-05-10T10:14:59;22.70;99.90
14057;DHT22;7103;54.300;10.180;2023-05-10T10:17:27;22.60;99.90
14057;DHT22;7103;54.300;10.180;2023-05-10T10:19:57;22.70;99.90
14057;DHT22;7103;54.300;10.180;2023-05-10T10:22:24;23.10;99.90
14057;DHT22;7103;54.300;10.180;2023-05-10T10:24:52;23.10;99.90
14057;DHT22;7103;54.300;10.180;2023-05-10T10:28:11;23.30;99.90
14057;DHT22;7103;54.300;10.180;2023-05-10T10:30:47;23.70;99.90
14057;DHT22;7103;54.300;10.180;2023-05-10T10:36:19;22.50;99.90
14057;DHT22;7103;54.300;10.180;2023-05-10T10:49:47;23.40;99.90
14057;DHT22;7103;54.300;10.180;2023-05-10T10:57:31;22.40;99.90
14057;DHT22;7103;54.300;10.180;2023-05-10T11:00:22;22.30;99.90
14057;DHT22;7103;54.300;10.180;2023-05-10T11:03:09;22.00;99.90
14057;DHT22;7103;54.300;10.180;2023-05-10T11:08:26;22.00;99.90
14057;DHT22;7103;54.300;10.180;2023-05-10T11:13:33;21.50;99.90
14057;DHT22;7103;54.300;10.180;2023-05-10T11:16:18;21.30;99.90
14057;DHT22;7103;54.300;10.180;2023-05-10T11:21:25;21.30;99.90
14057;DHT22;7103;54.300;10.180;2023-05-10T11:23:54;21.50;99.90
14057;DHT22;7103;54.300;10.180;2023-05-10T11:26:25;21.30;99.90
14057;DHT22;7103;54.300;10.180;2023-05-10T11:28:54;21.30;99.90
14057;DHT22;7103;54.300;10.180;2023-05-10T11:31:25;21.40;99.90
14057;DHT22;7103;54.300;10.180;2023-05-10T11:33:55;21.40;99.90
14057;DHT22;7103;54.300;10.180;2023-05-10T11:36:28;21.30;99.90
14057;DHT22;7103;54.300;10.180;2023-05-10T11:38:56;21.10;99.90
14057;DHT22;7103;54.300;10.180;2023-05-10T11:41:24;20.80;99.90
14057;DHT22;7103;54.300;10.180;2023-05-10T11:43:52;20.50;99.90
14057;DHT22;7103;54.300;10.180;2023-05-10T11:46:23;20.40;99.90
14057;DHT22;7103;54.300;10.180;2023-05-10T11:48:52;20.50;99.90
14057;DHT22;7103;54.300;10.180;2023-05-10T11:51:23;20.40;99.90
14057;DHT22;7103;54.300;10.180;2023-05-10T11:53:53;20.40;99.90
14057;DHT22;7103;54.300;10.180;2023-05-10T11:56:20;20.40;99.90
14057;DHT22;7103;54.300;10.180;2023-05-10T11:58:56;20.40;99.90
14057;DHT22;7103;54.300;10.180;2023-05-10T12:01:25;20.40;99.90
14057;DHT22;7103;54.300;10.180;2023-05-10T12:03:55;20.40;99.90
14057;DHT22;7103;54.300;10.180;2023-05-10T12:06:30;20.40;99.90
14057;DHT22;7103;54.300;10.180;2023-05-10T12:08:58;20.40;99.90
14057;DHT22;7103;54.300;10.180;2023-05-10T12:11:27;20.40;99.90
14057;DHT22;7103;54.300;10.180;2023-05-10T12:13:55;20.50;99.90
14057;DHT22;7103;54.300;10.180;2023-05-10T12:16:25;20.40;99.90
14057;DHT22;7103;54.300;10.180;2023-05-10T12:18:55;20.30;99.90
14057;DHT22;7103;54.300;10.180;2023-05-10T12:21:23;20.10;99.90
14057;DHT22;7103;54.300;10.180;2023-05-10T12:23:53;20.20;99.90
14057;DHT22;7103;54.300;10.180;2023-05-10T12:26:24;20.20;99.90
14057;DHT22;7103;54.300;10.180;2023-05-10T12:28:53;20.10;99.90
14057;DHT22;7103;54.300;10.180;2023-05-10T12:31:21;19.90;99.90
14057;DHT22;7103;54.300;10.180;2023-05-10T12:33:48;19.70;99.90
14057;DHT22;7103;54.300;10.180;2023-05-10T12:36:16;19.50;99.90
14057;DHT22;7103;54.300;10.180;2023-05-10T12:38:45;19.20;99.90
14057;DHT22;7103;54.300;10.180;2023-05-10T12:41:16;18.90;99.90
14057;DHT22;7103;54.300;10.180;2023-05-10T12:43:44;18.50;99.90
14057;DHT22;7103;54.300;10.180;2023-05-10T12:46:13;18.10;99.90
14057;DHT22;7103;54.300;10.180;2023-05-10T12:48:42;17.90;1.00
14057;DHT22;7103;54.300;10.180;2023-05-10T12:51:09;17.80;1.00
14057;DHT22;7103;54.300;10.180;2023-05-10T12:53:39;17.70;1.00
14057;DHT22;7103;54.300;10.180;2023-05-10T12:56:10;17.40;1.00
14057;DHT22;7103;54.300;10.180;2023-05-10T12:58:38;17.40;1.00
14057;DHT22;7103;54.300;10.180;2023-05-10T13:01:05;17.30;1.00
14057;DHT22;7103;54.300;10.180;2023-05-10T13:03:32;17.30;1.00
14057;DHT22;7103;54.300;10.180;2023-05-10T13:05:59;17.20;1.00
14057;DHT22;7103;54.300;10.180;2023-05-10T13:08:26;17.30;1.00
14057;DHT22;7103;54.300;10.180;2023-05-10T13:10:54;17.10;1.00
14057;DHT22;7103;54.300;10.180;2023-05-10T13:13:21;17.10;1.00
14057;DHT22;7103;54.300;10.180;2023-05-10T13:15:48;17.10;1.00
14057;DHT22;7103;54.300;10.180;2023-05-10T13:18:15;17.00;1.00
14057;DHT22;7103;54.300;10.180;2023-05-10T13:20:42;16.90;1.00
14057;DHT22;7103;54.300;10.180;2023-05-10T13:23:10;16.60;1.00
14057;DHT22;7103;54.300;10.180;2023-05-10T13:25:37;16.60;1.00
14057;DHT22;7103;54.300;10.180;2023-05-10T13:28:04;16.50;1.00
14057;DHT22;7103;54.300;10.180;2023-05-10T13:30:31;16.50;1.00
14057;DHT22;7103;54.300;10.180;2023-05-10T13:32:58;16.50;1.00
14057;DHT22;7103;54.300;10.180;2023-05-10T13:35:25;16.60;1.00
14057;DHT22;7103;54.300;10.180;2023-05-10T13:37:52;16.50;1.00
14057;DHT22;7103;54.300;10.180;2023-05-10T13:40:20;16.50;1.00
14057;DHT22;7103;54.300;10.180;2023-05-10T13:42:46;16.50;1.00
14057;DHT22;7103;54.300;10.180;2023-05-10T13:45:13;16.60;1.00
14057;DHT22;7103;54.300;10.180;2023-05-10T13:47:41;16.60;1.00
14057;DHT22;7103;54.300;10.180;2023-05-10T13:50:08;16.40;1.00
14057;DHT22;7103;54.300;10.180;2023-05-10T13:52:35;16.60;1.00
14057;DHT22;7103;54.300;10.180;2023-05-10T13:55:02;16.50;1.00
14057;DHT22;7103;54.300;10.180;2023-05-10T13:57:29;16.40;1.00
14057;DHT22;7103;54.300;10.180;2023-05-10T13:59:57;16.40;1.00
14057;DHT22;7103;54.300;10.180;2023-05-10T14:02:25;16.40;1.00
14057;DHT22;7103;54.300;10.180;2023-05-10T14:04:54;16.30;1.00
14057;DHT22;7103;54.300;10.180;2023-05-10T14:07:23;16.30;1.00
14057;DHT22;7103;54.300;10.180;2023-05-10T14:09:50;16.40;1.00
14057;DHT22;7103;54.300;10.180;2023-05-10T14:12:17;16.50;1.00
14057;DHT22;7103;54.300;10.180;2023-05-10T14:14:44;16.60;1.00
14057;DHT22;7103;54.300;10.180;2023-05-10T14:17:12;16.50;1.00
14057;DHT22;7103;54.300;10.180;2023-05-10T14:19:39;16.50;1.00
14057;DHT22;7103;54.300;10.180;2023-05-10T14:22:06;16.50;1.00
14057;DHT22;7103;54.300;10.180;2023-05-10T14:24:33;16.60;1.00
14057;DHT22;7103;54.300;10.180;2023-05-10T14:27:00;16.50;1.00
14057;DHT22;7103;54.300;10.180;2023-05-10T14:29:27;16.70;1.00
14057;DHT22;7103;54.300;10.180;2023-05-10T14:31:54;16.80;1.00
14057;DHT22;7103;54.300;10.180;2023-05-10T14:34:21;17.00;1.00
14057;DHT22;7103;54.300;10.180;2023-05-10T14:36:48;17.10;1.00
14057;DHT22;7103;54.300;10.180;2023-05-10T14:39:14;17.20;1.00
14057;DHT22;7103;54.300;10.180;2023-05-10T14:41:42;17.20;1.00
14057;DHT22;7103;54.300;10.180;2023-05-10T14:44:11;17.30;1.00
14057;DHT22;7103;54.300;10.180;2023-05-10T14:46:38;17.40;1.00
14057;DHT22;7103;54.300;10.180;2023-05-10T14:49:06;17.40;1.00
14057;DHT22;7103;54.300;10.180;2023-05-10T14:51:33;17.50;1.00
14057;DHT22;7103;54.300;10.180;2023-05-10T14:54:00;17.50;1.00
14057;DHT22;7103;54.300;10.180;2023-05-10T14:56:28;17.50;1.00
14057;DHT22;7103;54.300;10.180;2023-05-10T14:58:55;17.40;1.00
14057;DHT22;7103;54.300;10.180;2023-05-10T15:01:22;17.40;1.00
14057;DHT22;7103;54.300;10.180;2023-05-10T15:03:50;17.40;1.00
14057;DHT22;7103;54.300;10.180;2023-05-10T15:06:23;17.50;1.00
14057;DHT22;7103;54.300;10.180;2023-05-10T15:08:50;17.50;1.00
14057;DHT22;7103;54.300;10.180;2023-05-10T15:11:18;17.50;1.00
14057;DHT22;7103;54.300;10.180;2023-05-10T15:13:45;17.50;1.00
14057;DHT22;7103;54.300;10.180;2023-05-10T15:16:12;17.60;1.00
14057;DHT22;7103;54.300;10.180;2023-05-10T15:18:39;17.70;1.00
14057;DHT22;7103;54.300;10.180;2023-05-10T15:21:06;17.70;1.00
14057;DHT22;7103;54.300;10.180;2023-05-10T15:23:33;17.70;1.00
14057;DHT22;7103;54.300;10.180;2023-05-10T15:26:00;17.70;1.00
14057;DHT22;7103;54.300;10.180;2023-05-10T15:28:27;17.70;1.00
14057;DHT22;7103;54.300;10.180;2023-05-10T15:30:55;17.70;1.00
14057;DHT22;7103;54.300;10.180;2023-05-10T15:33:22;17.80;1.00
14057;DHT22;7103;54.300;10.180;2023-05-10T15:35:49;17.80;1.00
14057;DHT22;7103;54.300;10.180;2023-05-10T15:38:16;17.80;1.00
14057;DHT22;7103;54.300;10.180;2023-05-10T15:40:43;17.80;1.00
14057;DHT22;7103;54.300;10.180;2023-05-10T15:43:10;17.90;1.00
14057;DHT22;7103;54.300;10.180;2023-05-10T15:45:37;17.90;1.00
14057;DHT22;7103;54.300;10.180;2023-05-10T15:48:04;17.80;1.00
14057;DHT22;7103;54.300;10.180;2023-05-10T15:50:31;17.90;1.00
14057;DHT22;7103;54.300;10.180;2023-05-10T15:52:58;17.80;1.00
14057;DHT22;7103;54.300;10.180;2023-05-10T15:55:25;17.80;1.00
14057;DHT22;7103;54.300;10.180;2023-05-10T15:57:52;17.80;1.00
14057;DHT22;7103;54.300;10.180;2023-05-10T16:00:19;17.90;1.00
14057;DHT22;7103;54.300;10.180;2023-05-10T16:02:46;17.80;1.00
14057;DHT22;7103;54.300;10.180;2023-05-10T16:05:13;17.80;1.00
14057;DHT22;7103;54.300;10.180;2023-05-10T16:07:42;17.70;1.00
14057;DHT22;7103;54.300;10.180;2023-05-10T16:10:09;17.80;1.00
14057;DHT22;7103;54.300;10.180;2023-05-10T16:12:37;17.60;1.00
14057;DHT22;7103;54.300;10.180;2023-05-10T16:15:05;17.50;1.00
14057;DHT22;7103;54.300;10.180;2023-05-10T16:17:32;17.50;1.00
14057;DHT22;7103;54.300;10.180;2023-05-10T16:19:59;17.50;1.00
14057;DHT22;7103;54.300;10.180;2023-05-10T16:22:27;17.50;1.00
14057;DHT22;7103;54.300;10.180;2023-05-10T16:24:56;17.40;1.00
14057;DHT22;7103;54.300;10.180;2023-05-10T16:27:23;17.40;1.00
14057;DHT22;7103;54.300;10.180;2023-05-10T16:29:50;17.40;1.00